Historyczne dane pomiarowe

Dodano dane terminowe – wersja testowa.

Dane z okresu 1951-2019

Wersja bazy: 1.34 [2019-03-16, lista zmian], aktualizacja planowana na 2019-04-15

Dane meteo z obszaru Polski uzyskane na podstawie danych udostępnionych przez Instytut Meteorologii i Gospodarki Wodnej – Państwowy Instytut Badawczy.

 

Wybierz Datę:    

       

TemperaturaWilgotnośćWiatrCiśnienieOpadyŚniegCzas trwania zjawisk
 Stacja t tx tn tng RH VA  wxwx mslp ppp RRR   cm mm wxwxwxwxwxwxwx
1994-08-14 13.3 18.3 10.0 10.0 80.8- 6.7 2.7---- 3.0------------
1994-08-13 16.7 22.4 11.6 11.6 81.0- 6.7 2.3---- 1.5------------
1994-08-12 19.8 24.7 11.6 11.6 66.5- 5.0 0.3---- 0.0------------
1994-08-11 19.5 25.9 11.6 11.6 62.5- 6.3 0.7---- 0.0------------
1994-08-10 21.0 25.9 15.0 14.9 72.8- 4.0 0.7---- 0.0------------
1994-08-09 18.6 21.4 15.0 15.0 82.0- 7.3 0.0---- 0.0------------
1994-08-08 19.9 25.1 16.3 16.3 77.5- 6.0 0.3---- 0.0------------
1994-08-07 22.4 27.1 17.2 17.2 73.3- 4.7 1.0---- 0.0------------
1994-08-06 25.3 34.7 17.8 16.7 53.8- 4.0 1.0---- 11.0------------
1994-08-05 23.5 32.0 17.0 15.9 62.8- 3.0 0.3---- 0.0------------
1994-08-04 23.2 29.4 18.6 18.6 74.5- 5.0 1.0---- 0.0------------
1994-08-03 23.7 28.4 18.8 18.8 75.5- 5.7 1.7---- 0.0------------
1994-08-02 25.2 35.0 16.1 16.1 59.3- 5.0 0.3---- 0.0------------
1994-08-01 26.6 36.1 16.8 16.8 57.0- 4.7 0.0---- 0.0------------
1994-07-31 29.3 36.1 16.9 15.4 46.8- 3.7 0.7---- 0.0------------
1994-07-30 27.8 36.0 14.6 14.6 47.8- 2.3 0.3---- 0.0------------
1994-07-29 27.3 35.4 14.2 13.7 51.8- 1.0 0.0---- 0.0------------
1994-07-28 27.5 34.4 14.2 13.4 50.3- 1.0 0.0---- 0.0------------
1994-07-27 25.2 34.0 13.7 12.4 49.5- 1.3 0.0---- 0.0------------
1994-07-26 24.9 33.0 13.1 11.9 47.0- 1.0 0.7---- 0.0------------
1994-07-25 23.2 31.7 14.2 11.4 51.8- 1.3 1.0---- 0.0------------
1994-07-24 23.0 30.7 13.1 10.7 49.8- 1.7 0.0---- 0.0------------
1994-07-23 21.9 28.7 11.3 9.9 54.8- 2.0 1.0---- 0.0------------
1994-07-22 20.5 26.3 11.6 8.9 59.8- 1.7 1.0---- 0.0------------
1994-07-21 20.7 28.9 8.1 7.4 56.3- 1.7 2.0---- 0.0------------
1994-07-20 18.3 24.9 9.5 9.4 62.0- 1.3 1.7---- 0.0------------
1994-07-19 17.4 21.8 10.8 9.4 62.3- 1.7 2.0---- 0.0------------
1994-07-18 18.5 24.7 13.7 13.7 61.3- 3.7 1.7---- 0.0------------
1994-07-17 21.8 25.9 16.1 16.1 69.3- 6.0 1.3---- 0.0------------
1994-07-16 23.5 30.0 13.1 13.1 61.3- 4.0 1.3---- 0.0------------
1994-07-15 25.1 31.0 15.2 13.9 60.8- 2.7 0.7---- 0.0------------
1994-07-14 24.3 32.0 15.0 14.7 64.3- 2.7 0.0---- 0.0------------
1994-07-13 23.4 31.3 14.9 13.9 59.8- 2.0 0.0---- 0.0------------
1994-07-12 24.4 30.2 15.1 13.9 61.8- 2.0 0.3---- 0.0------------
1994-07-11 21.9 28.4 12.3 10.4 64.8- 1.0 1.0---- 0.0------------
1994-07-10 19.2 26.1 11.3 11.3 73.5- 2.7 0.7---- 0.0------------
1994-07-09 14.3 18.8 9.6 9.6 85.5- 7.7 1.7---- 0.0------------
1994-07-08 14.4 23.2 10.3 10.1 92.3- 7.0 1.0---- 15.0------------
1994-07-07 18.0 25.5 8.9 8.4 54.3- 2.0 1.3---- 0.0------------
1994-07-06 17.4 24.9 11.3 10.9 66.0- 3.7 0.7---- 0.0------------
1994-07-05 16.7 23.3 10.0 10.0 61.3- 1.3 0.7---- 0.0------------
1994-07-04 19.1 25.2 9.0 8.1 59.0- 1.3 1.7---- 0.0------------
1994-07-03 18.0 23.6 6.7 6.7 57.8- 3.0 1.7---- 0.0------------
1994-07-02 15.8 22.5 8.0 7.9 60.8- 1.3 1.0---- 0.0------------
1994-07-01 16.9 22.5 11.1 11.0 66.3- 3.0 2.0---- 0.0------------
1994-06-30 20.6 26.6 13.7 13.7 73.5- 5.0 2.0---- 0.0------------
1994-06-29 23.1 30.5 13.7 12.9 66.5- 1.0 0.3---- 11.2------------
1994-06-28 21.3 27.6 11.1 10.9 63.0- 3.3 0.7---- 0.0------------
1994-06-27 22.3 28.4 15.2 13.7 68.5- 5.0 1.7---- 0.0------------
1994-06-26 19.6 29.9 6.7 6.7 59.5- 1.7 2.0---- 0.0------------
1994-06-25 16.0 23.1 4.0 4.0 61.0- 1.0 0.7---- 0.0------------
1994-06-24 13.3 18.3 8.1 7.9 58.8- 3.3 4.0---- 0.0------------
1994-06-23 13.9 19.0 11.1 9.9 61.8- 3.0 3.0---- 0.5------------
1994-06-22 17.6 24.4 12.1 11.4 66.3- 7.0 1.3---- 0.5------------
1994-06-21 14.2 20.6 5.6 5.6 65.3- 1.0 0.0---- 0.0------------
1994-06-20 13.6 17.4 11.1 10.9 68.5- 3.3 1.3---- 0.0------------
1994-06-19 12.7 15.4 10.3 10.3 94.8- 8.0 2.0---- 5.2------------
1994-06-18 11.1 17.1 2.4 2.4 72.5- 7.7 1.0---- 4.2------------
1994-06-17 9.0 12.5 4.3 4.3 79.8- 6.7 1.3---- 4.3------------
1994-06-16 11.2 14.6 8.1 8.1 80.5- 6.7 2.0---- 4.8------------
212.1 ms

 

Źródłem pochodzenia danych jest Instytut Meteorologii i Gospodarki Wodnej – Państwowy Instytut Badawczy. Dane Instytutu Meteorologii i Gospodarki Wodnej – Państwowego Instytutu Badawczego zostały przetworzone.

Dane źródłowe można odnaleźć na stronie https://dane.imgw.pl